Nassau Bay, Texas
Current Conditions -  °F | °C
As of 6:50 PM on Monday 22 Dec 2014 (Local Time) from KEFD Reporting Station
Scattered Clouds Scattered Clouds  
Wind Chill: 64°   Ceiling: Unl
Heat Index: 64°   Visibility: 10mi
Dew Point: 61°   Wind: 9mph
Humidity: 88%   Direction: 200°SSW
Pressure: 29.66"   Gusts: NA
Location:  29.5712°N, 95.0773°W
Report Text: KEFD 230050Z 20008KT 10SM FEW030 SCT250 18/16 A2966
Loading
Personal Weather Stations






























Interactive Weather Map New forecast layout! Learn more

10-Day Weather Forecast

Advertisements
Track Severe Weather on mobile